sensor_id;sensor_type;location;lat;lon;timestamp;temperature;humidity
2757;DHT22;1386;50.862;6.494;2022-11-20T00:00:02;4.60;99.90
2757;DHT22;1386;50.862;6.494;2022-11-20T00:02:29;4.50;99.90
2757;DHT22;1386;50.862;6.494;2022-11-20T00:04:56;4.50;99.90
2757;DHT22;1386;50.862;6.494;2022-11-20T00:07:24;4.50;99.90
2757;DHT22;1386;50.862;6.494;2022-11-20T00:09:51;4.50;99.90
2757;DHT22;1386;50.862;6.494;2022-11-20T00:12:18;4.50;99.90
2757;DHT22;1386;50.862;6.494;2022-11-20T00:14:45;4.50;99.90
2757;DHT22;1386;50.862;6.494;2022-11-20T00:17:12;4.50;99.90
2757;DHT22;1386;50.862;6.494;2022-11-20T00:19:39;4.50;99.90
2757;DHT22;1386;50.862;6.494;2022-11-20T00:22:05;4.60;99.90
2757;DHT22;1386;50.862;6.494;2022-11-20T00:24:34;4.50;99.90
2757;DHT22;1386;50.862;6.494;2022-11-20T00:27:01;4.50;99.90
2757;DHT22;1386;50.862;6.494;2022-11-20T00:29:28;4.50;99.90
2757;DHT22;1386;50.862;6.494;2022-11-20T00:31:55;4.50;99.90
2757;DHT22;1386;50.862;6.494;2022-11-20T00:34:21;4.50;99.90
2757;DHT22;1386;50.862;6.494;2022-11-20T00:36:48;4.50;99.90
2757;DHT22;1386;50.862;6.494;2022-11-20T00:39:15;4.50;99.90
2757;DHT22;1386;50.862;6.494;2022-11-20T00:41:43;4.50;99.90
2757;DHT22;1386;50.862;6.494;2022-11-20T00:44:10;4.50;99.90
2757;DHT22;1386;50.862;6.494;2022-11-20T00:46:37;4.50;99.90
2757;DHT22;1386;50.862;6.494;2022-11-20T00:49:04;4.50;99.90
2757;DHT22;1386;50.862;6.494;2022-11-20T00:51:31;4.50;99.90
2757;DHT22;1386;50.862;6.494;2022-11-20T00:53:58;4.50;99.90
2757;DHT22;1386;50.862;6.494;2022-11-20T00:56:27;4.40;99.90
2757;DHT22;1386;50.862;6.494;2022-11-20T00:58:58;4.40;99.90
2757;DHT22;1386;50.862;6.494;2022-11-20T01:01:26;4.40;99.90
2757;DHT22;1386;50.862;6.494;2022-11-20T01:03:56;4.40;99.90
2757;DHT22;1386;50.862;6.494;2022-11-20T01:06:24;4.40;99.90
2757;DHT22;1386;50.862;6.494;2022-11-20T01:08:54;4.30;99.90
2757;DHT22;1386;50.862;6.494;2022-11-20T01:11:23;4.30;99.90
2757;DHT22;1386;50.862;6.494;2022-11-20T01:13:52;4.30;99.90
2757;DHT22;1386;50.862;6.494;2022-11-20T01:16:24;4.30;99.90
2757;DHT22;1386;50.862;6.494;2022-11-20T01:18:53;4.30;99.90
2757;DHT22;1386;50.862;6.494;2022-11-20T01:21:22;4.30;99.90
2757;DHT22;1386;50.862;6.494;2022-11-20T01:23:50;4.30;99.90
2757;DHT22;1386;50.862;6.494;2022-11-20T01:26:18;4.20;99.90
2757;DHT22;1386;50.862;6.494;2022-11-20T01:28:45;4.20;99.90
2757;DHT22;1386;50.862;6.494;2022-11-20T01:31:14;4.30;99.90
2757;DHT22;1386;50.862;6.494;2022-11-20T01:33:43;4.20;99.90
2757;DHT22;1386;50.862;6.494;2022-11-20T01:36:11;4.20;99.90
2757;DHT22;1386;50.862;6.494;2022-11-20T01:38:38;4.10;99.90
2757;DHT22;1386;50.862;6.494;2022-11-20T01:41:06;4.10;99.90
2757;DHT22;1386;50.862;6.494;2022-11-20T01:43:33;4.20;99.90
2757;DHT22;1386;50.862;6.494;2022-11-20T01:48:53;4.10;99.90
2757;DHT22;1386;50.862;6.494;2022-11-20T01:51:26;4.20;99.90
2757;DHT22;1386;50.862;6.494;2022-11-20T01:53:56;4.20;99.90
2757;DHT22;1386;50.862;6.494;2022-11-20T01:56:24;4.20;99.90
2757;DHT22;1386;50.862;6.494;2022-11-20T01:58:55;4.20;99.90
2757;DHT22;1386;50.862;6.494;2022-11-20T02:01:25;4.20;99.90
2757;DHT22;1386;50.862;6.494;2022-11-20T02:03:54;4.10;99.90
2757;DHT22;1386;50.862;6.494;2022-11-20T02:06:25;4.10;99.90
2757;DHT22;1386;50.862;6.494;2022-11-20T02:08:52;4.10;99.90
2757;DHT22;1386;50.862;6.494;2022-11-20T02:11:20;4.10;99.90
2757;DHT22;1386;50.862;6.494;2022-11-20T02:13:48;4.00;99.90
2757;DHT22;1386;50.862;6.494;2022-11-20T02:18:42;4.00;99.90
2757;DHT22;1386;50.862;6.494;2022-11-20T02:21:16;4.00;99.90
2757;DHT22;1386;50.862;6.494;2022-11-20T02:24:01;4.00;99.90
2757;DHT22;1386;50.862;6.494;2022-11-20T02:26:31;4.00;99.90
2757;DHT22;1386;50.862;6.494;2022-11-20T02:29:00;4.00;99.90
2757;DHT22;1386;50.862;6.494;2022-11-20T02:31:27;4.00;99.90
2757;DHT22;1386;50.862;6.494;2022-11-20T02:33:55;4.00;99.90
2757;DHT22;1386;50.862;6.494;2022-11-20T02:36:23;4.00;99.90
2757;DHT22;1386;50.862;6.494;2022-11-20T02:38:50;4.00;99.90
2757;DHT22;1386;50.862;6.494;2022-11-20T02:41:19;4.00;99.90
2757;DHT22;1386;50.862;6.494;2022-11-20T02:43:45;4.00;99.90
2757;DHT22;1386;50.862;6.494;2022-11-20T02:46:13;4.00;99.90
2757;DHT22;1386;50.862;6.494;2022-11-20T02:48:40;4.00;99.90
2757;DHT22;1386;50.862;6.494;2022-11-20T02:51:07;4.00;99.90
2757;DHT22;1386;50.862;6.494;2022-11-20T02:53:33;3.90;99.90
2757;DHT22;1386;50.862;6.494;2022-11-20T02:56:00;3.90;99.90
2757;DHT22;1386;50.862;6.494;2022-11-20T02:58:28;3.90;99.90
2757;DHT22;1386;50.862;6.494;2022-11-20T03:00:55;3.90;99.90
2757;DHT22;1386;50.862;6.494;2022-11-20T03:03:22;3.90;99.90
2757;DHT22;1386;50.862;6.494;2022-11-20T03:05:49;3.90;99.90
2757;DHT22;1386;50.862;6.494;2022-11-20T03:08:16;3.90;99.90
2757;DHT22;1386;50.862;6.494;2022-11-20T03:10:42;3.90;99.90
2757;DHT22;1386;50.862;6.494;2022-11-20T03:13:09;3.90;99.90
2757;DHT22;1386;50.862;6.494;2022-11-20T03:15:38;3.80;99.90
2757;DHT22;1386;50.862;6.494;2022-11-20T03:18:05;3.80;99.90
2757;DHT22;1386;50.862;6.494;2022-11-20T03:20:33;3.80;99.90
2757;DHT22;1386;50.862;6.494;2022-11-20T03:23:00;3.90;99.90
2757;DHT22;1386;50.862;6.494;2022-11-20T03:25:27;3.90;99.90
2757;DHT22;1386;50.862;6.494;2022-11-20T03:27:54;3.90;99.90
2757;DHT22;1386;50.862;6.494;2022-11-20T03:30:21;3.90;99.90
2757;DHT22;1386;50.862;6.494;2022-11-20T03:32:49;3.90;99.90
2757;DHT22;1386;50.862;6.494;2022-11-20T03:35:19;3.90;99.90
2757;DHT22;1386;50.862;6.494;2022-11-20T03:37:46;3.90;99.90
2757;DHT22;1386;50.862;6.494;2022-11-20T03:40:12;3.90;99.90
2757;DHT22;1386;50.862;6.494;2022-11-20T03:42:39;3.90;99.90
2757;DHT22;1386;50.862;6.494;2022-11-20T03:45:12;4.00;99.90
2757;DHT22;1386;50.862;6.494;2022-11-20T03:47:39;4.00;99.90
2757;DHT22;1386;50.862;6.494;2022-11-20T03:50:09;4.00;99.90
2757;DHT22;1386;50.862;6.494;2022-11-20T03:52:36;4.10;99.90
2757;DHT22;1386;50.862;6.494;2022-11-20T03:55:03;4.10;99.90
2757;DHT22;1386;50.862;6.494;2022-11-20T03:57:30;4.00;99.90
2757;DHT22;1386;50.862;6.494;2022-11-20T03:59:57;4.00;99.90
2757;DHT22;1386;50.862;6.494;2022-11-20T04:02:24;4.00;99.90
2757;DHT22;1386;50.862;6.494;2022-11-20T04:04:51;4.10;99.90
2757;DHT22;1386;50.862;6.494;2022-11-20T04:07:19;4.10;99.90
2757;DHT22;1386;50.862;6.494;2022-11-20T04:09:45;4.10;99.90
2757;DHT22;1386;50.862;6.494;2022-11-20T04:12:12;4.10;99.90
2757;DHT22;1386;50.862;6.494;2022-11-20T04:14:39;4.10;99.90
2757;DHT22;1386;50.862;6.494;2022-11-20T04:17:06;4.10;99.90
2757;DHT22;1386;50.862;6.494;2022-11-20T04:19:33;4.10;99.90
2757;DHT22;1386;50.862;6.494;2022-11-20T04:21:59;4.10;99.90
2757;DHT22;1386;50.862;6.494;2022-11-20T04:24:28;4.10;99.90
2757;DHT22;1386;50.862;6.494;2022-11-20T04:26:54;4.00;99.90
2757;DHT22;1386;50.862;6.494;2022-11-20T04:29:21;4.00;99.90
2757;DHT22;1386;50.862;6.494;2022-11-20T04:31:48;4.00;99.90
2757;DHT22;1386;50.862;6.494;2022-11-20T04:34:15;4.00;99.90
2757;DHT22;1386;50.862;6.494;2022-11-20T04:36:42;4.00;99.90
2757;DHT22;1386;50.862;6.494;2022-11-20T04:39:12;4.00;99.90
2757;DHT22;1386;50.862;6.494;2022-11-20T04:41:41;4.00;99.90
2757;DHT22;1386;50.862;6.494;2022-11-20T04:44:08;4.00;99.90
2757;DHT22;1386;50.862;6.494;2022-11-20T04:46:36;4.00;99.90
2757;DHT22;1386;50.862;6.494;2022-11-20T04:49:04;4.00;99.90
2757;DHT22;1386;50.862;6.494;2022-11-20T04:51:31;4.00;99.90
2757;DHT22;1386;50.862;6.494;2022-11-20T04:53:58;4.00;99.90
2757;DHT22;1386;50.862;6.494;2022-11-20T04:56:25;4.00;99.90
2757;DHT22;1386;50.862;6.494;2022-11-20T04:58:53;4.00;99.90
2757;DHT22;1386;50.862;6.494;2022-11-20T05:01:22;4.00;99.90
2757;DHT22;1386;50.862;6.494;2022-11-20T05:03:49;4.00;99.90
2757;DHT22;1386;50.862;6.494;2022-11-20T05:06:18;4.00;99.90
2757;DHT22;1386;50.862;6.494;2022-11-20T05:08:45;4.00;99.90
2757;DHT22;1386;50.862;6.494;2022-11-20T05:11:14;4.00;99.90
2757;DHT22;1386;50.862;6.494;2022-11-20T05:13:41;4.00;99.90
2757;DHT22;1386;50.862;6.494;2022-11-20T05:16:11;4.00;99.90
2757;DHT22;1386;50.862;6.494;2022-11-20T05:18:39;4.00;99.90
2757;DHT22;1386;50.862;6.494;2022-11-20T05:21:06;4.00;99.90
2757;DHT22;1386;50.862;6.494;2022-11-20T05:23:34;4.00;99.90
2757;DHT22;1386;50.862;6.494;2022-11-20T05:26:01;4.00;99.90
2757;DHT22;1386;50.862;6.494;2022-11-20T05:28:29;4.00;99.90
2757;DHT22;1386;50.862;6.494;2022-11-20T05:30:56;4.00;99.90
2757;DHT22;1386;50.862;6.494;2022-11-20T05:33:31;4.00;99.90
2757;DHT22;1386;50.862;6.494;2022-11-20T05:35:58;4.00;99.90
2757;DHT22;1386;50.862;6.494;2022-11-20T05:38:37;4.00;99.90
2757;DHT22;1386;50.862;6.494;2022-11-20T05:41:06;4.10;99.90
2757;DHT22;1386;50.862;6.494;2022-11-20T05:43:33;4.10;99.90
2757;DHT22;1386;50.862;6.494;2022-11-20T05:46:01;4.10;99.90
2757;DHT22;1386;50.862;6.494;2022-11-20T05:48:28;4.10;99.90
2757;DHT22;1386;50.862;6.494;2022-11-20T05:50:58;4.00;99.90
2757;DHT22;1386;50.862;6.494;2022-11-20T05:53:25;4.00;99.90
2757;DHT22;1386;50.862;6.494;2022-11-20T05:55:58;4.10;99.90
2757;DHT22;1386;50.862;6.494;2022-11-20T05:58:25;4.10;99.90
2757;DHT22;1386;50.862;6.494;2022-11-20T06:00:52;4.10;99.90
2757;DHT22;1386;50.862;6.494;2022-11-20T06:03:19;4.00;99.90
2757;DHT22;1386;50.862;6.494;2022-11-20T06:05:47;4.10;99.90
2757;DHT22;1386;50.862;6.494;2022-11-20T06:08:15;4.10;99.90
2757;DHT22;1386;50.862;6.494;2022-11-20T06:10:42;4.10;99.90
2757;DHT22;1386;50.862;6.494;2022-11-20T06:13:09;4.10;99.90
2757;DHT22;1386;50.862;6.494;2022-11-20T06:15:35;4.10;99.90
2757;DHT22;1386;50.862;6.494;2022-11-20T06:18:02;4.10;99.90
2757;DHT22;1386;50.862;6.494;2022-11-20T06:20:29;4.10;99.90
2757;DHT22;1386;50.862;6.494;2022-11-20T06:22:56;4.10;99.90
2757;DHT22;1386;50.862;6.494;2022-11-20T06:25:26;4.10;99.90
2757;DHT22;1386;50.862;6.494;2022-11-20T06:27:53;4.10;99.90
2757;DHT22;1386;50.862;6.494;2022-11-20T06:30:20;4.10;99.90
2757;DHT22;1386;50.862;6.494;2022-11-20T06:32:47;4.10;99.90
2757;DHT22;1386;50.862;6.494;2022-11-20T06:35:14;4.10;99.90
2757;DHT22;1386;50.862;6.494;2022-11-20T06:37:41;4.10;99.90
2757;DHT22;1386;50.862;6.494;2022-11-20T06:40:10;4.20;99.90
2757;DHT22;1386;50.862;6.494;2022-11-20T06:42:38;4.20;99.90
2757;DHT22;1386;50.862;6.494;2022-11-20T06:45:06;4.20;99.90
2757;DHT22;1386;50.862;6.494;2022-11-20T06:47:32;4.20;99.90
2757;DHT22;1386;50.862;6.494;2022-11-20T06:49:59;4.20;99.90
2757;DHT22;1386;50.862;6.494;2022-11-20T06:52:26;4.20;99.90
2757;DHT22;1386;50.862;6.494;2022-11-20T06:54:53;4.20;99.90
2757;DHT22;1386;50.862;6.494;2022-11-20T06:57:20;4.10;99.90
2757;DHT22;1386;50.862;6.494;2022-11-20T06:59:48;4.20;99.90
2757;DHT22;1386;50.862;6.494;2022-11-20T07:02:15;4.20;99.90
2757;DHT22;1386;50.862;6.494;2022-11-20T07:04:47;4.20;99.90
2757;DHT22;1386;50.862;6.494;2022-11-20T07:07:14;4.10;99.90
2757;DHT22;1386;50.862;6.494;2022-11-20T07:13:29;4.10;99.90
2757;DHT22;1386;50.862;6.494;2022-11-20T07:16:07;4.20;99.90
2757;DHT22;1386;50.862;6.494;2022-11-20T07:18:37;4.10;99.90
2757;DHT22;1386;50.862;6.494;2022-11-20T07:21:22;4.20;99.90
2757;DHT22;1386;50.862;6.494;2022-11-20T07:23:51;4.10;99.90
2757;DHT22;1386;50.862;6.494;2022-11-20T07:26:18;4.20;99.90
2757;DHT22;1386;50.862;6.494;2022-11-20T07:28:45;4.10;99.90
2757;DHT22;1386;50.862;6.494;2022-11-20T07:31:14;4.10;99.90
2757;DHT22;1386;50.862;6.494;2022-11-20T07:33:41;4.20;99.90
2757;DHT22;1386;50.862;6.494;2022-11-20T07:36:08;4.10;99.90
2757;DHT22;1386;50.862;6.494;2022-11-20T07:38:35;4.20;99.90
2757;DHT22;1386;50.862;6.494;2022-11-20T07:41:03;4.20;99.90
2757;DHT22;1386;50.862;6.494;2022-11-20T07:43:30;4.20;99.90
2757;DHT22;1386;50.862;6.494;2022-11-20T07:45:58;4.30;99.90
2757;DHT22;1386;50.862;6.494;2022-11-20T07:48:26;4.30;99.90
2757;DHT22;1386;50.862;6.494;2022-11-20T07:50:53;4.30;99.90
2757;DHT22;1386;50.862;6.494;2022-11-20T07:53:26;4.40;99.90
2757;DHT22;1386;50.862;6.494;2022-11-20T07:55:53;4.40;99.90
2757;DHT22;1386;50.862;6.494;2022-11-20T07:58:20;4.50;99.90
2757;DHT22;1386;50.862;6.494;2022-11-20T08:00:47;4.60;99.90
2757;DHT22;1386;50.862;6.494;2022-11-20T08:03:15;4.60;99.90
2757;DHT22;1386;50.862;6.494;2022-11-20T08:13:36;4.80;99.90
2757;DHT22;1386;50.862;6.494;2022-11-20T08:29:19;4.70;99.90
2757;DHT22;1386;50.862;6.494;2022-11-20T08:31:46;4.80;99.90
2757;DHT22;1386;50.862;6.494;2022-11-20T08:34:13;4.80;99.90
2757;DHT22;1386;50.862;6.494;2022-11-20T08:36:40;4.80;99.90
2757;DHT22;1386;50.862;6.494;2022-11-20T08:39:07;4.90;99.90
2757;DHT22;1386;50.862;6.494;2022-11-20T08:41:34;4.90;99.90
2757;DHT22;1386;50.862;6.494;2022-11-20T08:44:03;5.00;99.90
2757;DHT22;1386;50.862;6.494;2022-11-20T08:46:34;4.90;99.90
2757;DHT22;1386;50.862;6.494;2022-11-20T08:49:02;4.90;99.90
2757;DHT22;1386;50.862;6.494;2022-11-20T08:51:29;4.90;99.90
2757;DHT22;1386;50.862;6.494;2022-11-20T08:53:57;4.80;99.90
2757;DHT22;1386;50.862;6.494;2022-11-20T08:56:24;4.90;99.90
2757;DHT22;1386;50.862;6.494;2022-11-20T08:58:51;4.90;99.90
2757;DHT22;1386;50.862;6.494;2022-11-20T09:01:18;4.90;99.90
2757;DHT22;1386;50.862;6.494;2022-11-20T09:03:47;4.90;99.90
2757;DHT22;1386;50.862;6.494;2022-11-20T09:06:14;5.40;99.90
2757;DHT22;1386;50.862;6.494;2022-11-20T09:08:44;5.40;99.90
2757;DHT22;1386;50.862;6.494;2022-11-20T09:11:11;5.30;99.90
2757;DHT22;1386;50.862;6.494;2022-11-20T09:13:38;5.30;99.90
2757;DHT22;1386;50.862;6.494;2022-11-20T09:16:07;5.30;99.90
2757;DHT22;1386;50.862;6.494;2022-11-20T09:18:34;5.20;99.90
2757;DHT22;1386;50.862;6.494;2022-11-20T09:21:07;5.10;99.90
2757;DHT22;1386;50.862;6.494;2022-11-20T09:23:36;5.10;99.90
2757;DHT22;1386;50.862;6.494;2022-11-20T09:26:04;5.10;99.90
2757;DHT22;1386;50.862;6.494;2022-11-20T09:28:31;5.10;99.90
2757;DHT22;1386;50.862;6.494;2022-11-20T09:30:58;5.10;99.90
2757;DHT22;1386;50.862;6.494;2022-11-20T09:33:25;5.30;99.90
2757;DHT22;1386;50.862;6.494;2022-11-20T09:35:52;5.80;99.90
2757;DHT22;1386;50.862;6.494;2022-11-20T09:38:20;5.70;99.90
2757;DHT22;1386;50.862;6.494;2022-11-20T09:40:51;5.70;99.90
2757;DHT22;1386;50.862;6.494;2022-11-20T09:43:24;5.60;99.90
2757;DHT22;1386;50.862;6.494;2022-11-20T09:45:59;5.60;99.90
2757;DHT22;1386;50.862;6.494;2022-11-20T09:48:38;5.50;99.90
2757;DHT22;1386;50.862;6.494;2022-11-20T09:51:14;5.50;99.90
2757;DHT22;1386;50.862;6.494;2022-11-20T09:53:56;5.50;99.90
2757;DHT22;1386;50.862;6.494;2022-11-20T09:56:28;5.40;99.90
2757;DHT22;1386;50.862;6.494;2022-11-20T09:58:59;5.40;99.90
2757;DHT22;1386;50.862;6.494;2022-11-20T10:01:30;5.40;99.90
2757;DHT22;1386;50.862;6.494;2022-11-20T10:04:01;5.40;99.90
2757;DHT22;1386;50.862;6.494;2022-11-20T10:06:31;5.30;99.90
2757;DHT22;1386;50.862;6.494;2022-11-20T10:09:18;5.40;99.90
2757;DHT22;1386;50.862;6.494;2022-11-20T10:11:55;5.50;99.90
2757;DHT22;1386;50.862;6.494;2022-11-20T10:14:33;5.40;99.90
2757;DHT22;1386;50.862;6.494;2022-11-20T10:17:12;5.40;99.90
2757;DHT22;1386;50.862;6.494;2022-11-20T10:20:01;5.40;99.90
2757;DHT22;1386;50.862;6.494;2022-11-20T10:22:44;5.40;99.90
2757;DHT22;1386;50.862;6.494;2022-11-20T10:25:18;5.40;99.90
2757;DHT22;1386;50.862;6.494;2022-11-20T10:28:06;5.30;99.90
2757;DHT22;1386;50.862;6.494;2022-11-20T10:30:37;5.30;99.90
2757;DHT22;1386;50.862;6.494;2022-11-20T10:33:06;5.30;99.90
2757;DHT22;1386;50.862;6.494;2022-11-20T10:35:39;5.20;99.90
2757;DHT22;1386;50.862;6.494;2022-11-20T10:38:11;5.20;99.90
2757;DHT22;1386;50.862;6.494;2022-11-20T10:40:43;5.20;99.90
2757;DHT22;1386;50.862;6.494;2022-11-20T10:43:15;5.20;99.90
2757;DHT22;1386;50.862;6.494;2022-11-20T10:45:49;5.20;99.90
2757;DHT22;1386;50.862;6.494;2022-11-20T10:48:21;5.20;99.90
2757;DHT22;1386;50.862;6.494;2022-11-20T10:51:08;5.20;99.90
2757;DHT22;1386;50.862;6.494;2022-11-20T10:53:46;5.20;99.90
2757;DHT22;1386;50.862;6.494;2022-11-20T10:56:24;5.20;99.90
2757;DHT22;1386;50.862;6.494;2022-11-20T10:59:03;5.30;99.90
2757;DHT22;1386;50.862;6.494;2022-11-20T11:01:38;5.20;99.90
2757;DHT22;1386;50.862;6.494;2022-11-20T11:04:30;5.20;99.90
2757;DHT22;1386;50.862;6.494;2022-11-20T11:07:10;5.20;99.90
2757;DHT22;1386;50.862;6.494;2022-11-20T11:09:46;5.20;99.90
2757;DHT22;1386;50.862;6.494;2022-11-20T11:12:15;5.20;99.90
2757;DHT22;1386;50.862;6.494;2022-11-20T11:14:48;5.20;99.90
2757;DHT22;1386;50.862;6.494;2022-11-20T11:17:29;5.20;99.90
2757;DHT22;1386;50.862;6.494;2022-11-20T11:19:58;5.20;99.90
2757;DHT22;1386;50.862;6.494;2022-11-20T20:15:40;7.80;99.90
2757;DHT22;1386;50.862;6.494;2022-11-20T20:18:07;7.80;99.90
2757;DHT22;1386;50.862;6.494;2022-11-20T20:20:33;7.80;99.90
2757;DHT22;1386;50.862;6.494;2022-11-20T20:23:00;7.80;99.90
2757;DHT22;1386;50.862;6.494;2022-11-20T20:25:31;7.80;99.90
2757;DHT22;1386;50.862;6.494;2022-11-20T20:27:58;7.80;99.90
2757;DHT22;1386;50.862;6.494;2022-11-20T20:30:25;7.80;99.90
2757;DHT22;1386;50.862;6.494;2022-11-20T20:32:53;7.70;99.90
2757;DHT22;1386;50.862;6.494;2022-11-20T20:35:20;7.70;99.90
2757;DHT22;1386;50.862;6.494;2022-11-20T20:37:47;7.70;99.90
2757;DHT22;1386;50.862;6.494;2022-11-20T20:40:14;7.70;99.90
2757;DHT22;1386;50.862;6.494;2022-11-20T20:42:43;7.60;99.90
2757;DHT22;1386;50.862;6.494;2022-11-20T20:45:10;7.70;99.90
2757;DHT22;1386;50.862;6.494;2022-11-20T20:47:38;7.60;99.90
2757;DHT22;1386;50.862;6.494;2022-11-20T20:50:09;7.60;99.90
2757;DHT22;1386;50.862;6.494;2022-11-20T20:52:36;7.60;99.90
2757;DHT22;1386;50.862;6.494;2022-11-20T20:55:03;7.60;99.90
2757;DHT22;1386;50.862;6.494;2022-11-20T20:57:30;7.60;99.90
2757;DHT22;1386;50.862;6.494;2022-11-20T20:59:58;7.50;99.90
2757;DHT22;1386;50.862;6.494;2022-11-20T21:02:25;7.60;99.90
2757;DHT22;1386;50.862;6.494;2022-11-20T21:04:52;7.50;99.90
2757;DHT22;1386;50.862;6.494;2022-11-20T21:07:21;7.50;99.90
2757;DHT22;1386;50.862;6.494;2022-11-20T21:09:48;7.50;99.90
2757;DHT22;1386;50.862;6.494;2022-11-20T21:12:15;7.50;99.90
2757;DHT22;1386;50.862;6.494;2022-11-20T21:14:41;7.50;99.90
2757;DHT22;1386;50.862;6.494;2022-11-20T21:17:08;7.50;99.90
2757;DHT22;1386;50.862;6.494;2022-11-20T21:19:36;7.50;99.90
2757;DHT22;1386;50.862;6.494;2022-11-20T21:22:03;7.50;99.90
2757;DHT22;1386;50.862;6.494;2022-11-20T21:24:32;7.50;99.90
2757;DHT22;1386;50.862;6.494;2022-11-20T21:27:00;7.50;99.90
2757;DHT22;1386;50.862;6.494;2022-11-20T21:29:28;7.50;99.90
2757;DHT22;1386;50.862;6.494;2022-11-20T21:31:56;7.50;99.90
2757;DHT22;1386;50.862;6.494;2022-11-20T21:34:24;7.50;99.90
2757;DHT22;1386;50.862;6.494;2022-11-20T21:36:51;7.50;99.90
2757;DHT22;1386;50.862;6.494;2022-11-20T21:39:18;7.50;99.90
2757;DHT22;1386;50.862;6.494;2022-11-20T21:41:47;7.50;99.90
2757;DHT22;1386;50.862;6.494;2022-11-20T21:44:14;7.50;99.90
2757;DHT22;1386;50.862;6.494;2022-11-20T21:46:43;7.50;99.90
2757;DHT22;1386;50.862;6.494;2022-11-20T21:49:10;7.50;99.90
2757;DHT22;1386;50.862;6.494;2022-11-20T21:51:39;7.50;99.90
2757;DHT22;1386;50.862;6.494;2022-11-20T21:54:06;7.50;99.90
2757;DHT22;1386;50.862;6.494;2022-11-20T21:56:33;7.50;99.90
2757;DHT22;1386;50.862;6.494;2022-11-20T21:59:01;7.50;99.90
2757;DHT22;1386;50.862;6.494;2022-11-20T22:01:29;7.50;99.90
2757;DHT22;1386;50.862;6.494;2022-11-20T22:03:56;7.60;99.90
2757;DHT22;1386;50.862;6.494;2022-11-20T22:06:25;7.60;99.90
2757;DHT22;1386;50.862;6.494;2022-11-20T22:08:52;7.60;99.90
2757;DHT22;1386;50.862;6.494;2022-11-20T22:11:20;7.50;99.90
2757;DHT22;1386;50.862;6.494;2022-11-20T22:13:47;7.50;99.90
2757;DHT22;1386;50.862;6.494;2022-11-20T22:16:34;7.50;99.90
2757;DHT22;1386;50.862;6.494;2022-11-20T22:19:01;7.50;99.90
2757;DHT22;1386;50.862;6.494;2022-11-20T22:21:29;7.50;99.90
2757;DHT22;1386;50.862;6.494;2022-11-20T22:23:57;7.60;99.90
2757;DHT22;1386;50.862;6.494;2022-11-20T22:26:25;7.60;99.90
2757;DHT22;1386;50.862;6.494;2022-11-20T22:28:53;7.60;99.90
2757;DHT22;1386;50.862;6.494;2022-11-20T22:31:24;7.60;99.90
2757;DHT22;1386;50.862;6.494;2022-11-20T22:33:52;7.60;99.90
2757;DHT22;1386;50.862;6.494;2022-11-20T22:36:21;7.70;99.90
2757;DHT22;1386;50.862;6.494;2022-11-20T22:38:48;7.70;99.90
2757;DHT22;1386;50.862;6.494;2022-11-20T22:41:16;7.80;99.90
2757;DHT22;1386;50.862;6.494;2022-11-20T22:43:44;7.70;99.90
2757;DHT22;1386;50.862;6.494;2022-11-20T22:46:12;7.80;99.90
2757;DHT22;1386;50.862;6.494;2022-11-20T22:48:40;7.70;99.90
2757;DHT22;1386;50.862;6.494;2022-11-20T22:51:13;7.70;99.90
2757;DHT22;1386;50.862;6.494;2022-11-20T22:53:41;7.70;99.90
2757;DHT22;1386;50.862;6.494;2022-11-20T22:56:10;7.70;99.90
2757;DHT22;1386;50.862;6.494;2022-11-20T22:58:38;7.70;99.90
2757;DHT22;1386;50.862;6.494;2022-11-20T23:01:07;7.70;99.90
2757;DHT22;1386;50.862;6.494;2022-11-20T23:03:34;7.70;99.90
2757;DHT22;1386;50.862;6.494;2022-11-20T23:06:01;7.70;99.90
2757;DHT22;1386;50.862;6.494;2022-11-20T23:08:30;7.70;99.90
2757;DHT22;1386;50.862;6.494;2022-11-20T23:10:59;7.70;99.90
2757;DHT22;1386;50.862;6.494;2022-11-20T23:13:27;7.70;99.90
2757;DHT22;1386;50.862;6.494;2022-11-20T23:15:58;7.70;99.90
2757;DHT22;1386;50.862;6.494;2022-11-20T23:18:25;7.60;99.90
2757;DHT22;1386;50.862;6.494;2022-11-20T23:20:52;7.60;99.90
2757;DHT22;1386;50.862;6.494;2022-11-20T23:23:19;7.60;99.90
2757;DHT22;1386;50.862;6.494;2022-11-20T23:25:47;7.60;99.90
2757;DHT22;1386;50.862;6.494;2022-11-20T23:28:14;7.60;99.90
2757;DHT22;1386;50.862;6.494;2022-11-20T23:30:41;7.60;99.90
2757;DHT22;1386;50.862;6.494;2022-11-20T23:33:08;7.60;99.90
2757;DHT22;1386;50.862;6.494;2022-11-20T23:35:37;7.60;99.90
2757;DHT22;1386;50.862;6.494;2022-11-20T23:38:04;7.50;99.90
2757;DHT22;1386;50.862;6.494;2022-11-20T23:40:31;7.50;99.90
2757;DHT22;1386;50.862;6.494;2022-11-20T23:42:59;7.50;99.90
2757;DHT22;1386;50.862;6.494;2022-11-20T23:45:42;7.50;99.90
2757;DHT22;1386;50.862;6.494;2022-11-20T23:48:09;7.50;99.90
2757;DHT22;1386;50.862;6.494;2022-11-20T23:50:35;7.50;99.90
2757;DHT22;1386;50.862;6.494;2022-11-20T23:53:03;7.40;99.90
2757;DHT22;1386;50.862;6.494;2022-11-20T23:55:30;7.40;99.90
2757;DHT22;1386;50.862;6.494;2022-11-20T23:57:57;7.40;99.90
